createdAt,value
2022-09-01T00:00:32.933Z,5.20
2022-09-01T00:03:02.120Z,3.53
2022-09-01T00:05:32.799Z,4.93
2022-09-01T00:08:03.952Z,4.13
2022-09-01T00:10:33.120Z,4.90
2022-09-01T00:13:07.215Z,7.10
2022-09-01T00:15:36.452Z,2.45
2022-09-01T00:18:06.006Z,5.55
2022-09-01T00:20:35.045Z,5.85
2022-09-01T00:23:04.231Z,3.90
2022-09-01T00:25:33.563Z,7.72
2022-09-01T00:28:05.077Z,4.68
2022-09-01T00:30:34.400Z,3.67
2022-09-01T00:33:03.531Z,4.75
2022-09-01T00:35:32.456Z,7.03
2022-09-01T00:38:07.674Z,6.72
2022-09-01T00:40:36.949Z,5.07
2022-09-01T00:43:14.879Z,4.05
2022-09-01T00:45:43.955Z,7.65
2022-09-01T00:48:14.319Z,6.40
2022-09-01T00:50:43.778Z,3.65
2022-09-01T00:53:18.569Z,4.20
2022-09-01T00:55:47.517Z,3.58
2022-09-01T00:58:19.715Z,3.45
2022-09-01T01:00:51.069Z,5.57
2022-09-01T01:03:20.002Z,6.63
2022-09-01T01:05:54.161Z,5.10
2022-09-01T01:08:31.621Z,9.70
2022-09-01T01:11:00.787Z,4.13
2022-09-01T01:13:36.027Z,8.23
2022-09-01T01:16:11.008Z,3.45
2022-09-01T01:18:40.003Z,2.83
2022-09-01T01:21:34.346Z,6.57
2022-09-01T01:24:07.297Z,5.68
2022-09-01T01:26:37.673Z,5.22
2022-09-01T01:29:09.906Z,4.30
2022-09-01T01:31:39.403Z,3.63
2022-09-01T01:34:08.849Z,5.80
2022-09-01T01:36:41.205Z,11.82
2022-09-01T01:39:16.882Z,6.63
2022-09-01T01:41:49.001Z,5.13
2022-09-01T01:44:20.142Z,6.93
2022-09-01T01:46:51.264Z,6.18
2022-09-01T01:49:21.811Z,4.28
2022-09-01T01:51:56.294Z,8.35
2022-09-01T01:54:32.725Z,4.43
2022-09-01T01:57:04.453Z,3.45
2022-09-01T01:59:34.016Z,5.38
2022-09-01T02:02:09.793Z,4.57
2022-09-01T02:04:40.835Z,2.10
2022-09-01T02:07:13.648Z,7.25
2022-09-01T02:09:46.099Z,8.98
2022-09-01T02:12:19.666Z,7.63
2022-09-01T02:14:50.117Z,6.60
2022-09-01T02:17:21.210Z,4.93
2022-09-01T02:19:50.325Z,4.97
2022-09-01T02:22:21.726Z,6.13
2022-09-01T02:24:52.495Z,5.82
2022-09-01T02:27:27.024Z,3.38
2022-09-01T02:29:58.991Z,3.45
2022-09-01T02:32:28.278Z,2.67
2022-09-01T02:35:01.320Z,7.38
2022-09-01T02:37:30.495Z,5.32
2022-09-01T02:39:59.680Z,5.90
2022-09-01T02:42:30.261Z,6.25
2022-09-01T02:44:59.717Z,5.22
2022-09-01T02:47:33.619Z,7.75
2022-09-01T02:50:03.786Z,6.88
2022-09-01T02:52:37.087Z,7.78
2022-09-01T02:55:06.558Z,4.75
2022-09-01T02:57:37.209Z,6.03
2022-09-01T03:00:20.616Z,5.32
2022-09-01T03:02:51.450Z,4.25
2022-09-01T03:05:25.358Z,4.20
2022-09-01T03:07:56.667Z,9.07
2022-09-01T03:10:31.312Z,3.08
2022-09-01T03:13:02.551Z,5.25
2022-09-01T03:15:33.940Z,4.17
2022-09-01T03:18:04.221Z,7.03
2022-09-01T03:20:36.074Z,5.05
2022-09-01T03:23:08.012Z,4.40
2022-09-01T03:25:37.991Z,5.55
2022-09-01T03:28:09.667Z,5.22
2022-09-01T03:33:09.610Z,6.03
2022-09-01T03:35:38.792Z,8.15
2022-09-01T03:38:07.976Z,5.13
2022-09-01T03:40:38.152Z,7.78
2022-09-01T03:43:12.402Z,12.00
2022-09-01T03:45:43.471Z,8.75
2022-09-01T03:48:17.049Z,9.10
2022-09-01T03:50:47.250Z,7.80
2022-09-01T03:53:17.576Z,6.30
2022-09-01T03:55:47.218Z,7.15
2022-09-01T03:58:20.282Z,5.00
2022-09-01T04:00:50.263Z,7.53
2022-09-01T04:03:28.597Z,6.93
2022-09-01T04:05:59.152Z,3.80
2022-09-01T04:08:32.950Z,7.28
2022-09-01T04:11:05.352Z,4.72
2022-09-01T04:13:40.094Z,6.50
2022-09-01T04:16:30.449Z,4.13
2022-09-01T04:19:00.737Z,7.15
2022-09-01T04:21:30.512Z,6.05
2022-09-01T04:24:05.223Z,10.68
2022-09-01T04:26:34.868Z,5.95
2022-09-01T04:29:06.909Z,9.23
2022-09-01T04:31:37.985Z,7.75
2022-09-01T04:34:11.126Z,10.95
2022-09-01T04:36:42.209Z,12.07
2022-09-01T04:39:13.849Z,6.82
2022-09-01T04:41:46.211Z,6.85
2022-09-01T04:44:19.483Z,7.88
2022-09-01T04:46:50.624Z,6.45
2022-09-01T04:49:22.567Z,12.63
2022-09-01T04:51:55.109Z,6.13
2022-09-01T04:54:27.005Z,9.38
2022-09-01T04:56:56.050Z,8.50
2022-09-01T04:59:29.781Z,9.40
2022-09-01T05:02:07.882Z,6.05
2022-09-01T05:04:46.560Z,6.65
2022-09-01T05:07:16.284Z,5.85
2022-09-01T05:09:45.868Z,7.20
2022-09-01T05:12:53.262Z,5.13
2022-09-01T05:15:27.473Z,6.97
2022-09-01T05:17:59.897Z,6.22
2022-09-01T05:23:02.055Z,7.82
2022-09-01T05:25:31.407Z,5.68
2022-09-01T05:28:03.306Z,8.07
2022-09-01T05:30:38.810Z,8.00
2022-09-01T05:33:11.947Z,8.05
2022-09-01T05:35:45.105Z,13.20
2022-09-01T05:38:25.788Z,10.15
2022-09-01T05:41:02.247Z,6.80
2022-09-01T05:43:34.946Z,5.82
2022-09-01T05:46:10.052Z,7.97
2022-09-01T05:48:40.685Z,10.30
2022-09-01T05:51:42.312Z,7.32
2022-09-01T05:54:05.151Z,9.40
2022-09-01T05:56:44.093Z,6.68
2022-09-01T05:59:23.767Z,7.93
2022-09-01T06:01:59.783Z,3.40
2022-09-01T06:04:32.929Z,5.05
2022-09-01T06:07:09.006Z,5.88
2022-09-01T06:09:59.827Z,10.82
2022-09-01T06:12:30.331Z,8.07
2022-09-01T06:15:00.310Z,6.53
2022-09-01T06:17:36.734Z,12.98
2022-09-01T06:20:10.778Z,7.72
2022-09-01T06:22:46.279Z,5.03
2022-09-01T06:25:17.398Z,8.57
2022-09-01T06:27:51.330Z,7.60
2022-09-01T06:33:10.945Z,7.75
2022-09-01T06:35:44.848Z,10.70
2022-09-01T06:38:17.814Z,5.80
2022-09-01T06:40:54.822Z,8.18
2022-09-01T06:43:25.806Z,12.95
2022-09-01T06:45:57.261Z,6.43
2022-09-01T06:48:28.064Z,3.50
2022-09-01T06:51:16.548Z,6.22
2022-09-01T06:53:51.340Z,7.60
2022-09-01T06:56:29.120Z,8.68
2022-09-01T06:59:06.234Z,13.43
2022-09-01T07:01:41.725Z,5.78
2022-09-01T07:04:20.356Z,3.40
2022-09-01T07:07:00.184Z,8.70
2022-09-01T07:09:50.243Z,3.97
2022-09-01T07:18:41.214Z,7.50
2022-09-01T07:24:10.881Z,7.88
2022-09-01T07:26:48.109Z,6.70
2022-09-01T07:29:17.616Z,9.95
2022-09-01T07:31:52.173Z,4.38
2022-09-01T07:34:38.816Z,7.00
2022-09-01T07:38:46.877Z,8.07
2022-09-01T07:46:00.577Z,7.75
2022-09-01T07:49:01.887Z,2.88
2022-09-01T07:51:36.459Z,6.72
2022-09-01T07:54:08.363Z,4.60
2022-09-01T07:56:40.580Z,6.75
2022-09-01T07:59:16.330Z,7.53
2022-09-01T08:01:55.883Z,8.88
2022-09-01T08:04:29.396Z,7.93
2022-09-01T08:06:59.139Z,9.48
2022-09-01T08:09:38.152Z,5.93
2022-09-01T08:12:13.208Z,2.63
2022-09-01T08:15:12.726Z,7.20
2022-09-01T08:17:52.899Z,5.40
2022-09-01T08:20:25.294Z,7.65
2022-09-01T08:22:58.481Z,9.93
2022-09-01T08:25:37.630Z,5.70
2022-09-01T08:28:07.846Z,6.32
2022-09-01T08:30:52.040Z,2.95
2022-09-01T08:34:00.671Z,5.83
2022-09-01T08:37:10.141Z,5.55
2022-09-01T08:41:58.737Z,7.70
2022-09-01T08:44:41.632Z,4.50
2022-09-01T08:54:37.429Z,4.07
2022-09-01T09:02:19.805Z,5.00
2022-09-01T09:05:30.461Z,4.70
2022-09-01T09:08:41.472Z,2.58
2022-09-01T09:15:25.897Z,7.25
2022-09-01T09:19:10.570Z,6.32
2022-09-01T09:22:03.200Z,8.05
2022-09-01T09:28:47.920Z,5.45
2022-09-01T09:32:39.516Z,4.43
2022-09-01T09:39:59.167Z,4.72
2022-09-01T09:42:49.162Z,6.50
2022-09-01T09:45:31.570Z,7.45
2022-09-01T09:48:13.320Z,4.65
2022-09-01T09:51:00.093Z,4.80
2022-09-01T09:53:54.274Z,9.50
2022-09-01T09:56:34.491Z,5.30
2022-09-01T09:59:56.574Z,3.08
2022-09-01T10:03:41.118Z,6.05
2022-09-01T10:06:59.278Z,8.65
2022-09-01T10:42:45.202Z,3.53
2022-09-01T11:08:41.605Z,1.45
2022-09-01T11:45:43.377Z,3.38
2022-09-01T11:48:16.030Z,4.40
2022-09-01T11:50:46.247Z,4.25
2022-09-01T11:53:16.216Z,5.32
2022-09-01T11:55:46.793Z,4.55
2022-09-01T11:58:31.229Z,2.75
2022-09-01T12:01:13.956Z,4.00
2022-09-01T12:03:44.651Z,4.95
2022-09-01T12:06:15.418Z,3.08
2022-09-01T12:08:52.919Z,4.45
2022-09-01T12:11:26.109Z,3.45
2022-09-01T12:14:00.058Z,4.35
2022-09-01T12:16:32.184Z,3.95
2022-09-01T12:21:31.160Z,5.82
2022-09-01T12:24:13.359Z,6.30
2022-09-01T12:26:43.194Z,2.03
2022-09-01T12:29:13.962Z,5.43
2022-09-01T12:31:45.920Z,2.42
2022-09-01T12:34:25.998Z,6.68
2022-09-01T12:37:05.302Z,7.13
2022-09-01T12:39:36.065Z,1.55
2022-09-01T12:42:07.205Z,2.95
2022-09-01T12:44:46.686Z,2.27
2022-09-01T12:47:37.648Z,5.60
2022-09-01T12:50:08.220Z,3.30
2022-09-01T12:52:40.186Z,2.92
2022-09-01T12:58:07.595Z,4.40
2022-09-01T13:00:37.508Z,4.80
2022-09-01T13:03:09.665Z,4.53
2022-09-01T13:08:12.140Z,3.13
2022-09-01T13:10:43.170Z,2.45
2022-09-01T13:13:13.480Z,5.40
2022-09-01T13:15:48.157Z,2.92
2022-09-01T13:18:19.646Z,2.25
2022-09-01T13:20:49.019Z,3.00
2022-09-01T13:23:18.435Z,1.85
2022-09-01T13:25:47.728Z,4.35
2022-09-01T13:28:17.484Z,5.57
2022-09-01T13:30:48.466Z,2.38
2022-09-01T13:33:21.314Z,5.05
2022-09-01T13:35:52.423Z,4.13
2022-09-01T13:38:21.346Z,3.45
2022-09-01T13:40:51.110Z,2.92
2022-09-01T13:43:22.159Z,4.60
2022-09-01T13:45:51.741Z,5.15
2022-09-01T13:48:23.116Z,3.65
2022-09-01T13:53:42.658Z,2.05
2022-09-01T13:56:11.843Z,3.25
2022-09-01T13:58:41.117Z,4.35
2022-09-01T14:01:10.203Z,5.38
2022-09-01T14:03:41.729Z,3.88
2022-09-01T14:06:10.719Z,5.68
2022-09-01T14:08:40.151Z,4.47
2022-09-01T14:11:09.987Z,3.78
2022-09-01T14:13:40.180Z,2.75
2022-09-01T14:16:12.155Z,3.45
2022-09-01T14:21:14.857Z,3.65
2022-09-01T14:23:44.147Z,5.50
2022-09-01T14:26:13.749Z,2.40
2022-09-01T14:28:45.795Z,3.85
2022-09-01T14:31:15.339Z,2.63
2022-09-01T14:33:49.112Z,2.00
2022-09-01T14:36:21.108Z,3.75
2022-09-01T14:38:50.613Z,4.25
2022-09-01T14:41:21.910Z,2.40
2022-09-01T14:43:51.086Z,4.05
2022-09-01T14:46:20.586Z,4.18
2022-09-01T14:48:50.739Z,4.07
2022-09-01T14:51:24.145Z,2.88
2022-09-01T14:53:53.460Z,2.25
2022-09-01T14:56:22.962Z,2.58
2022-09-01T14:58:54.122Z,2.53
2022-09-01T15:01:34.155Z,3.00
2022-09-01T15:04:04.276Z,3.00
2022-09-01T15:06:34.653Z,4.07
2022-09-01T15:09:03.916Z,10.13
2022-09-01T15:11:32.952Z,4.40
2022-09-01T15:14:05.074Z,2.42
2022-09-01T15:16:39.475Z,2.47
2022-09-01T15:19:09.861Z,2.90
2022-09-01T15:21:41.450Z,4.60
2022-09-01T15:24:11.327Z,5.57
2022-09-01T15:26:41.774Z,4.30
2022-09-01T15:29:13.211Z,4.82
2022-09-01T15:31:43.962Z,3.88
2022-09-01T15:34:14.150Z,3.78
2022-09-01T15:36:45.365Z,3.25
2022-09-01T15:39:14.601Z,3.28
2022-09-01T15:41:45.910Z,2.88
2022-09-01T15:44:15.002Z,2.53
2022-09-01T15:46:46.947Z,3.30
2022-09-01T15:49:18.164Z,4.28
2022-09-01T15:51:48.629Z,3.53
2022-09-01T15:54:19.067Z,3.33
2022-09-01T15:56:49.149Z,3.83
2022-09-01T15:59:18.490Z,4.60
2022-09-01T16:01:47.955Z,3.40
2022-09-01T16:04:20.855Z,4.72
2022-09-01T16:06:56.591Z,5.90
2022-09-01T16:09:26.492Z,7.07
2022-09-01T16:11:55.631Z,7.32
2022-09-01T16:14:24.628Z,6.65
2022-09-01T16:16:57.645Z,3.75
2022-09-01T16:19:32.111Z,4.45
2022-09-01T16:22:07.017Z,3.75
2022-09-01T16:24:41.872Z,3.33
2022-09-01T16:27:13.631Z,2.15
2022-09-01T16:29:45.979Z,5.25
2022-09-01T16:32:15.719Z,5.93
2022-09-01T16:34:47.062Z,2.63
2022-09-01T16:37:23.765Z,2.67
2022-09-01T16:39:57.159Z,5.10
2022-09-01T16:42:29.261Z,3.00
2022-09-01T16:50:06.218Z,8.68
2022-09-01T16:52:42.441Z,4.80
2022-09-01T16:55:18.438Z,5.85
2022-09-01T16:57:59.075Z,3.67
2022-09-01T17:00:33.092Z,3.83
2022-09-01T17:03:08.890Z,9.23
2022-09-01T17:05:51.423Z,4.30
2022-09-01T17:08:23.273Z,7.22
2022-09-01T17:10:54.144Z,4.57
2022-09-01T17:13:25.979Z,4.82
2022-09-01T17:16:02.699Z,4.40
2022-09-01T17:18:35.647Z,5.07
2022-09-01T17:21:10.609Z,5.55
2022-09-01T17:23:42.578Z,6.60
2022-09-01T17:26:15.973Z,6.20
2022-09-01T17:28:51.762Z,8.07
2022-09-01T17:31:27.269Z,7.85
2022-09-01T17:34:01.987Z,7.00
2022-09-01T17:36:37.053Z,10.43
2022-09-01T17:39:14.298Z,8.23
2022-09-01T17:41:47.406Z,7.40
2022-09-01T17:44:21.157Z,11.52
2022-09-01T17:46:55.950Z,6.57
2022-09-01T17:49:28.030Z,8.30
2022-09-01T17:54:33.077Z,10.70
2022-09-01T17:57:05.470Z,11.57
2022-09-01T17:59:43.190Z,8.02
2022-09-01T18:02:36.578Z,11.90
2022-09-01T18:05:09.441Z,7.25
2022-09-01T18:07:53.320Z,11.93
2022-09-01T18:10:27.223Z,13.50
2022-09-01T18:13:00.594Z,9.52
2022-09-01T18:15:30.745Z,7.53
2022-09-01T18:18:04.359Z,9.27
2022-09-01T18:20:35.555Z,9.75
2022-09-01T18:23:06.631Z,9.45
2022-09-01T18:25:40.541Z,12.10
2022-09-01T18:28:10.430Z,10.00
2022-09-01T18:30:54.692Z,7.88
2022-09-01T18:33:27.269Z,10.45
2022-09-01T18:36:01.557Z,12.45
2022-09-01T18:38:35.670Z,12.52
2022-09-01T18:41:13.563Z,10.02
2022-09-01T18:43:44.839Z,9.00
2022-09-01T18:46:18.685Z,9.20
2022-09-01T18:48:53.910Z,19.45
2022-09-01T18:51:26.312Z,12.88
2022-09-01T18:53:59.070Z,8.13
2022-09-01T18:56:37.634Z,9.10
2022-09-01T18:59:13.024Z,8.18
2022-09-01T19:01:47.218Z,9.27
2022-09-01T19:04:19.831Z,10.77
2022-09-01T19:06:54.001Z,12.40
2022-09-01T19:09:26.380Z,12.93
2022-09-01T19:12:11.304Z,11.15
2022-09-01T19:14:44.404Z,11.90
2022-09-01T19:17:20.881Z,13.25
2022-09-01T19:19:53.169Z,13.13
2022-09-01T19:22:23.626Z,7.95
2022-09-01T19:24:54.663Z,10.07
2022-09-01T19:27:27.127Z,9.20
2022-09-01T19:29:59.313Z,11.15
2022-09-01T19:34:58.495Z,7.60
2022-09-01T19:37:27.977Z,8.20
2022-09-01T19:39:57.477Z,8.55
2022-09-01T19:42:30.500Z,13.20
2022-09-01T19:45:06.537Z,11.50
2022-09-01T19:47:38.550Z,8.52
2022-09-01T19:50:10.811Z,14.27
2022-09-01T19:52:42.271Z,10.52
2022-09-01T19:55:14.058Z,10.70
2022-09-01T19:57:47.788Z,8.95
2022-09-01T20:00:19.652Z,10.73
2022-09-01T20:02:52.696Z,7.80
2022-09-01T20:05:27.261Z,11.80
2022-09-01T20:08:00.046Z,9.02
2022-09-01T20:10:36.035Z,10.40
2022-09-01T20:13:17.954Z,10.90
2022-09-01T20:15:50.461Z,6.07
2022-09-01T20:18:22.900Z,10.80
2022-09-01T20:20:53.081Z,8.52
2022-09-01T20:23:27.138Z,9.65
2022-09-01T20:25:59.856Z,9.05
2022-09-01T20:28:34.478Z,12.65
2022-09-01T20:31:05.064Z,7.53
2022-09-01T20:33:36.677Z,9.70
2022-09-01T20:36:08.842Z,8.77
2022-09-01T20:39:17.731Z,7.75
2022-09-01T20:41:49.931Z,5.32
2022-09-01T20:44:26.399Z,7.28
2022-09-01T20:46:55.662Z,6.65
2022-09-01T20:49:24.846Z,6.88
2022-09-01T20:51:57.726Z,7.63
2022-09-01T20:54:31.219Z,9.43
2022-09-01T20:57:03.826Z,7.00
2022-09-01T20:59:39.506Z,9.70
2022-09-01T21:02:14.624Z,10.77
2022-09-01T21:04:50.776Z,11.50
2022-09-01T21:07:21.765Z,7.47
2022-09-01T21:09:56.109Z,7.03
2022-09-01T21:12:29.167Z,10.05
2022-09-01T21:15:03.769Z,8.27
2022-09-01T21:17:40.222Z,10.40
2022-09-01T21:20:13.224Z,9.30
2022-09-01T21:22:42.284Z,9.13
2022-09-01T21:25:11.262Z,7.72
2022-09-01T21:27:44.230Z,12.15
2022-09-01T21:30:16.077Z,9.50
2022-09-01T21:32:45.169Z,11.65
2022-09-01T21:35:15.305Z,9.68
2022-09-01T21:37:44.524Z,15.85
2022-09-01T21:40:14.724Z,13.50
2022-09-01T21:42:44.885Z,12.63
2022-09-01T21:45:17.680Z,7.50
2022-09-01T21:47:48.034Z,12.77
2022-09-01T21:50:18.150Z,9.20
2022-09-01T21:52:47.199Z,8.25
2022-09-01T21:55:22.060Z,11.68
2022-09-01T21:57:52.243Z,10.90
2022-09-01T22:00:24.120Z,13.77
2022-09-01T22:02:54.233Z,11.43
2022-09-01T22:05:26.229Z,9.63
2022-09-01T22:07:56.046Z,11.07
2022-09-01T22:10:26.420Z,15.55
2022-09-01T22:12:56.265Z,19.13
2022-09-01T22:15:27.735Z,10.07
2022-09-01T22:17:58.164Z,9.80
2022-09-01T22:20:29.254Z,12.73
2022-09-01T22:23:02.030Z,10.75
2022-09-01T22:25:31.822Z,14.70
2022-09-01T22:28:01.223Z,11.23
2022-09-01T22:30:32.187Z,14.70
2022-09-01T22:33:02.609Z,16.15
2022-09-01T22:35:31.625Z,14.70
2022-09-01T22:38:07.296Z,13.05
2022-09-01T22:40:38.020Z,16.63
2022-09-01T22:43:07.397Z,17.50
2022-09-01T22:45:38.688Z,15.68
2022-09-01T22:48:07.907Z,14.65
2022-09-01T22:50:39.683Z,14.07
2022-09-01T22:53:12.610Z,21.50
2022-09-01T22:55:43.043Z,14.10
2022-09-01T22:58:13.037Z,12.98
2022-09-01T23:00:47.693Z,16.10
2022-09-01T23:03:17.490Z,11.20
2022-09-01T23:05:47.277Z,12.40
2022-09-01T23:08:17.112Z,12.80
2022-09-01T23:10:46.287Z,11.95
2022-09-01T23:13:15.330Z,11.05
2022-09-01T23:15:45.944Z,14.23
2022-09-01T23:18:14.984Z,11.20
2022-09-01T23:20:43.988Z,12.45
2022-09-01T23:23:15.161Z,16.00
2022-09-01T23:25:44.963Z,9.60
2022-09-01T23:28:14.540Z,9.50
2022-09-01T23:30:45.740Z,11.30
2022-09-01T23:33:16.220Z,15.90
2022-09-01T23:35:45.352Z,11.85
2022-09-01T23:38:16.877Z,8.20
2022-09-01T23:40:47.082Z,12.27
2022-09-01T23:43:19.656Z,9.23
2022-09-01T23:45:51.298Z,8.25
2022-09-01T23:48:22.133Z,12.65
2022-09-01T23:50:53.645Z,14.57
2022-09-01T23:53:23.797Z,10.55
2022-09-01T23:55:53.887Z,13.68
2022-09-01T23:58:24.264Z,10.93
